sensor_id;sensor_type;location;lat;lon;timestamp;pressure;altitude;pressure_sealevel;temperature;humidity
67803;BME280;54601;51.378;-1.342;2022-09-20T00:02:23;101204.99;;;20.40;35.73
67803;BME280;54601;51.378;-1.342;2022-09-20T00:04:49;101209.25;;;20.05;35.81
67803;BME280;54601;51.378;-1.342;2022-09-20T00:07:15;101208.30;;;20.08;35.74
67803;BME280;54601;51.378;-1.342;2022-09-20T00:09:41;101210.64;;;20.04;35.77
67803;BME280;54601;51.378;-1.342;2022-09-20T00:12:07;101209.10;;;20.01;35.85
67803;BME280;54601;51.378;-1.342;2022-09-20T00:14:33;101210.90;;;20.32;35.79
67803;BME280;54601;51.378;-1.342;2022-09-20T00:16:59;101213.08;;;20.23;35.90
67803;BME280;54601;51.378;-1.342;2022-09-20T00:19:25;101213.66;;;20.15;35.64
67803;BME280;54601;51.378;-1.342;2022-09-20T00:21:51;101213.43;;;20.02;35.79
67803;BME280;54601;51.378;-1.342;2022-09-20T00:24:17;101213.22;;;20.28;35.79
67803;BME280;54601;51.378;-1.342;2022-09-20T00:26:43;101213.05;;;20.04;35.74
67803;BME280;54601;51.378;-1.342;2022-09-20T00:29:09;101212.37;;;19.98;35.79
67803;BME280;54601;51.378;-1.342;2022-09-20T00:31:36;101212.86;;;20.17;35.57
67803;BME280;54601;51.378;-1.342;2022-09-20T00:34:01;101211.69;;;20.26;35.79
67803;BME280;54601;51.378;-1.342;2022-09-20T00:36:27;101215.64;;;20.32;35.72
67803;BME280;54601;51.378;-1.342;2022-09-20T00:38:54;101216.56;;;20.04;35.69
67803;BME280;54601;51.378;-1.342;2022-09-20T00:41:19;101215.44;;;19.97;35.77
67803;BME280;54601;51.378;-1.342;2022-09-20T00:43:45;101216.11;;;20.24;35.76
67803;BME280;54601;51.378;-1.342;2022-09-20T00:46:19;101218.12;;;20.31;35.67
67803;BME280;54601;51.378;-1.342;2022-09-20T00:48:36;101218.87;;;20.30;35.67
67803;BME280;54601;51.378;-1.342;2022-09-20T00:51:05;101219.88;;;20.07;35.61
67803;BME280;54601;51.378;-1.342;2022-09-20T00:53:29;101220.26;;;20.10;35.55
67803;BME280;54601;51.378;-1.342;2022-09-20T00:55:56;101221.24;;;20.35;35.56
67803;BME280;54601;51.378;-1.342;2022-09-20T00:58:19;101221.20;;;20.15;35.84
67803;BME280;54601;51.378;-1.342;2022-09-20T01:00:43;101224.83;;;19.97;35.71
67803;BME280;54601;51.378;-1.342;2022-09-20T01:03:10;101225.06;;;20.45;35.72
67803;BME280;54601;51.378;-1.342;2022-09-20T01:05:33;101224.42;;;19.96;35.71
67803;BME280;54601;51.378;-1.342;2022-09-20T01:08:00;101223.93;;;20.15;35.82
67803;BME280;54601;51.378;-1.342;2022-09-20T01:10:26;101222.21;;;19.86;35.78
67803;BME280;54601;51.378;-1.342;2022-09-20T01:12:52;101223.67;;;20.13;35.81
67803;BME280;54601;51.378;-1.342;2022-09-20T01:15:18;101222.76;;;20.26;35.58
67803;BME280;54601;51.378;-1.342;2022-09-20T01:17:48;101224.74;;;19.88;35.76
67803;BME280;54601;51.378;-1.342;2022-09-20T01:20:13;101221.39;;;20.31;35.49
67803;BME280;54601;51.378;-1.342;2022-09-20T01:22:41;101218.15;;;19.89;35.71
67803;BME280;54601;51.378;-1.342;2022-09-20T01:25:08;101220.90;;;20.22;35.59
67803;BME280;54601;51.378;-1.342;2022-09-20T01:30:02;101217.38;;;20.22;35.58
67803;BME280;54601;51.378;-1.342;2022-09-20T01:32:23;101216.17;;;19.96;35.53
67803;BME280;54601;51.378;-1.342;2022-09-20T01:34:46;101215.25;;;19.93;35.58
67803;BME280;54601;51.378;-1.342;2022-09-20T01:37:15;101215.12;;;20.10;35.72
67803;BME280;54601;51.378;-1.342;2022-09-20T01:39:43;101215.84;;;20.21;35.51
67803;BME280;54601;51.378;-1.342;2022-09-20T01:42:06;101214.13;;;20.15;35.60
67803;BME280;54601;51.378;-1.342;2022-09-20T01:44:32;101208.99;;;20.18;35.50
67803;BME280;54601;51.378;-1.342;2022-09-20T01:46:58;101213.68;;;20.03;35.75
67803;BME280;54601;51.378;-1.342;2022-09-20T01:49:27;101212.26;;;20.02;35.75
67803;BME280;54601;51.378;-1.342;2022-09-20T01:52:01;101214.88;;;20.21;35.45
67803;BME280;54601;51.378;-1.342;2022-09-20T01:54:19;101212.60;;;20.07;35.69
67803;BME280;54601;51.378;-1.342;2022-09-20T01:56:44;101212.87;;;19.70;35.76
67803;BME280;54601;51.378;-1.342;2022-09-20T01:59:09;101214.46;;;20.02;35.65
67803;BME280;54601;51.378;-1.342;2022-09-20T02:01:36;101214.49;;;19.79;35.56
67803;BME280;54601;51.378;-1.342;2022-09-20T02:04:07;101214.74;;;20.02;35.58
67803;BME280;54601;51.378;-1.342;2022-09-20T02:06:23;101216.67;;;19.63;35.71
67803;BME280;54601;51.378;-1.342;2022-09-20T02:11:12;101215.48;;;19.60;35.70
67803;BME280;54601;51.378;-1.342;2022-09-20T02:13:42;101210.79;;;19.97;35.54
67803;BME280;54601;51.378;-1.342;2022-09-20T02:16:10;101211.17;;;19.99;35.47
67803;BME280;54601;51.378;-1.342;2022-09-20T02:18:37;101207.15;;;19.52;35.77
67803;BME280;54601;51.378;-1.342;2022-09-20T02:20:52;101207.98;;;19.76;35.39
67803;BME280;54601;51.378;-1.342;2022-09-20T02:23:21;101211.13;;;19.88;35.60
67803;BME280;54601;51.378;-1.342;2022-09-20T02:25:50;101208.07;;;19.72;35.38
67803;BME280;54601;51.378;-1.342;2022-09-20T02:28:12;101210.83;;;20.04;35.27
67803;BME280;54601;51.378;-1.342;2022-09-20T02:30:37;101214.02;;;19.41;35.78
67803;BME280;54601;51.378;-1.342;2022-09-20T02:33:07;101210.39;;;19.79;35.58
67803;BME280;54601;51.378;-1.342;2022-09-20T02:35:27;101210.45;;;19.47;35.64
67803;BME280;54601;51.378;-1.342;2022-09-20T02:37:54;101211.71;;;19.63;35.38
67803;BME280;54601;51.378;-1.342;2022-09-20T02:40:19;101213.58;;;19.93;35.64
67803;BME280;54601;51.378;-1.342;2022-09-20T02:42:37;101211.49;;;19.89;35.64
67803;BME280;54601;51.378;-1.342;2022-09-20T02:45:03;101212.20;;;19.55;35.78
67803;BME280;54601;51.378;-1.342;2022-09-20T02:47:30;101212.09;;;19.73;35.53
67803;BME280;54601;51.378;-1.342;2022-09-20T02:49:57;101208.32;;;19.82;35.66
67803;BME280;54601;51.378;-1.342;2022-09-20T02:52:19;101203.61;;;19.28;35.72
67803;BME280;54601;51.378;-1.342;2022-09-20T02:54:45;101205.93;;;19.73;35.53
67803;BME280;54601;51.378;-1.342;2022-09-20T02:57:12;101207.71;;;19.67;35.53
67803;BME280;54601;51.378;-1.342;2022-09-20T02:59:37;101206.48;;;19.34;35.64
67803;BME280;54601;51.378;-1.342;2022-09-20T03:02:06;101208.43;;;19.83;35.60
67803;BME280;54601;51.378;-1.342;2022-09-20T03:04:33;101208.46;;;19.52;35.70
67803;BME280;54601;51.378;-1.342;2022-09-20T03:06:53;101210.97;;;19.84;35.54
67803;BME280;54601;51.378;-1.342;2022-09-20T03:09:22;101211.11;;;19.85;35.51
67803;BME280;54601;51.378;-1.342;2022-09-20T03:11:45;101212.39;;;19.87;35.45
67803;BME280;54601;51.378;-1.342;2022-09-20T03:14:11;101214.55;;;19.64;35.45
67803;BME280;54601;51.378;-1.342;2022-09-20T03:16:39;101214.13;;;19.56;35.52
67803;BME280;54601;51.378;-1.342;2022-09-20T03:19:03;101213.94;;;19.55;35.81
67803;BME280;54601;51.378;-1.342;2022-09-20T03:21:31;101214.61;;;19.57;35.51
67803;BME280;54601;51.378;-1.342;2022-09-20T03:23:55;101211.70;;;19.50;35.55
67803;BME280;54601;51.378;-1.342;2022-09-20T03:26:23;101211.64;;;19.65;35.64
67803;BME280;54601;51.378;-1.342;2022-09-20T03:28:51;101212.29;;;19.39;35.67
67803;BME280;54601;51.378;-1.342;2022-09-20T03:31:16;101211.85;;;19.73;35.45
67803;BME280;54601;51.378;-1.342;2022-09-20T03:33:39;101208.05;;;19.29;35.77
67803;BME280;54601;51.378;-1.342;2022-09-20T03:36:04;101207.13;;;19.68;35.51
67803;BME280;54601;51.378;-1.342;2022-09-20T03:38:34;101209.91;;;19.53;35.41
67803;BME280;54601;51.378;-1.342;2022-09-20T03:40:59;101212.28;;;19.44;35.51
67803;BME280;54601;51.378;-1.342;2022-09-20T03:43:17;101209.42;;;19.32;35.63
67803;BME280;54601;51.378;-1.342;2022-09-20T03:45:45;101210.82;;;19.49;35.40
67803;BME280;54601;51.378;-1.342;2022-09-20T03:53:11;101209.77;;;19.54;35.59
67803;BME280;54601;51.378;-1.342;2022-09-20T03:57:50;101207.10;;;19.71;35.28
67803;BME280;54601;51.378;-1.342;2022-09-20T04:00:14;101208.97;;;19.35;35.44
67803;BME280;54601;51.378;-1.342;2022-09-20T04:02:40;101209.24;;;19.57;35.44
67803;BME280;54601;51.378;-1.342;2022-09-20T04:04:59;101212.66;;;19.73;35.20
67803;BME280;54601;51.378;-1.342;2022-09-20T04:07:26;101212.03;;;19.59;35.35
67803;BME280;54601;51.378;-1.342;2022-09-20T04:09:58;101212.82;;;19.69;35.14
67803;BME280;54601;51.378;-1.342;2022-09-20T04:12:20;101213.13;;;19.31;35.34
67803;BME280;54601;51.378;-1.342;2022-09-20T04:14:42;101210.35;;;19.44;35.18
67803;BME280;54601;51.378;-1.342;2022-09-20T04:17:10;101210.19;;;19.44;35.44
67803;BME280;54601;51.378;-1.342;2022-09-20T04:19:30;101206.26;;;19.60;35.20
67803;BME280;54601;51.378;-1.342;2022-09-20T04:21:55;101200.75;;;19.64;35.10
67803;BME280;54601;51.378;-1.342;2022-09-20T04:24:19;101198.73;;;19.68;35.03
67803;BME280;54601;51.378;-1.342;2022-09-20T04:26:44;101200.40;;;19.43;35.38
67803;BME280;54601;51.378;-1.342;2022-09-20T04:29:24;101201.33;;;19.54;35.18
67803;BME280;54601;51.378;-1.342;2022-09-20T04:31:35;101202.19;;;19.25;35.26
67803;BME280;54601;51.378;-1.342;2022-09-20T04:33:58;101201.56;;;19.53;35.18
67803;BME280;54601;51.378;-1.342;2022-09-20T04:36:35;101201.92;;;19.61;35.00
67803;BME280;54601;51.378;-1.342;2022-09-20T04:38:52;101200.79;;;19.09;35.38
67803;BME280;54601;51.378;-1.342;2022-09-20T04:41:20;101200.28;;;19.26;35.19
67803;BME280;54601;51.378;-1.342;2022-09-20T04:46:12;101194.63;;;19.29;35.35
67803;BME280;54601;51.378;-1.342;2022-09-20T04:48:36;101191.25;;;19.35;35.26
67803;BME280;54601;51.378;-1.342;2022-09-20T04:53:29;101189.10;;;19.46;34.98
67803;BME280;54601;51.378;-1.342;2022-09-20T04:55:48;101190.01;;;19.67;34.73
67803;BME280;54601;51.378;-1.342;2022-09-20T05:00:41;101189.06;;;19.31;35.19
67803;BME280;54601;51.378;-1.342;2022-09-20T05:05:36;101190.36;;;19.45;34.90
67803;BME280;54601;51.378;-1.342;2022-09-20T05:15:09;101190.04;;;18.88;35.24
67803;BME280;54601;51.378;-1.342;2022-09-20T05:17:37;101192.60;;;19.17;34.82
67803;BME280;54601;51.378;-1.342;2022-09-20T05:20:05;101192.17;;;18.87;35.16
67803;BME280;54601;51.378;-1.342;2022-09-20T05:22:32;101191.97;;;19.04;34.94
67803;BME280;54601;51.378;-1.342;2022-09-20T05:24:55;101195.07;;;19.24;34.96
67803;BME280;54601;51.378;-1.342;2022-09-20T05:27:19;101195.14;;;19.32;34.85
67803;BME280;54601;51.378;-1.342;2022-09-20T05:29:39;101194.29;;;19.26;34.84
67803;BME280;54601;51.378;-1.342;2022-09-20T05:32:02;101196.87;;;19.22;34.92
67803;BME280;54601;51.378;-1.342;2022-09-20T05:34:28;101196.50;;;19.25;34.80
67803;BME280;54601;51.378;-1.342;2022-09-20T05:36:54;101200.75;;;19.20;34.88
67803;BME280;54601;51.378;-1.342;2022-09-20T05:39:27;101200.59;;;19.18;34.86
67803;BME280;54601;51.378;-1.342;2022-09-20T05:41:41;101203.20;;;19.21;34.81
67803;BME280;54601;51.378;-1.342;2022-09-20T05:44:10;101205.80;;;19.24;34.75
67803;BME280;54601;51.378;-1.342;2022-09-20T05:46:35;101210.00;;;18.94;35.08
67803;BME280;54601;51.378;-1.342;2022-09-20T05:48:56;101212.25;;;18.82;34.59
67803;BME280;54601;51.378;-1.342;2022-09-20T05:53:58;101219.39;;;18.99;34.93
67803;BME280;54601;51.378;-1.342;2022-09-20T05:56:17;101216.32;;;19.13;34.76
67803;BME280;54601;51.378;-1.342;2022-09-20T05:58:45;101219.47;;;18.97;34.94
67803;BME280;54601;51.378;-1.342;2022-09-20T06:01:03;101217.91;;;18.95;34.98
67803;BME280;54601;51.378;-1.342;2022-09-20T06:03:32;101220.24;;;19.12;34.70
67803;BME280;54601;51.378;-1.342;2022-09-20T06:05:54;101223.37;;;19.06;34.75
67803;BME280;54601;51.378;-1.342;2022-09-20T06:08:28;101226.31;;;19.08;34.69
67803;BME280;54601;51.378;-1.342;2022-09-20T06:10:49;101228.99;;;18.83;34.76
67803;BME280;54601;51.378;-1.342;2022-09-20T06:13:14;101226.56;;;18.98;34.80
67803;BME280;54601;51.378;-1.342;2022-09-20T06:15:35;101227.83;;;19.04;34.76
67803;BME280;54601;51.378;-1.342;2022-09-20T06:18:01;101227.01;;;19.15;34.54
67803;BME280;54601;51.378;-1.342;2022-09-20T06:20:25;101233.59;;;19.12;34.62
67803;BME280;54601;51.378;-1.342;2022-09-20T06:22:45;101234.83;;;18.93;34.86
67803;BME280;54601;51.378;-1.342;2022-09-20T06:25:16;101236.71;;;19.18;34.91
67803;BME280;54601;51.378;-1.342;2022-09-20T06:27:37;101238.47;;;19.03;34.73
67803;BME280;54601;51.378;-1.342;2022-09-20T06:30:03;101239.86;;;18.77;35.09
67803;BME280;54601;51.378;-1.342;2022-09-20T06:32:25;101242.57;;;18.89;34.91
67803;BME280;54601;51.378;-1.342;2022-09-20T06:34:50;101241.01;;;18.73;35.12
67803;BME280;54601;51.378;-1.342;2022-09-20T06:37:25;101243.41;;;19.00;34.77
67803;BME280;54601;51.378;-1.342;2022-09-20T06:39:45;101248.37;;;19.01;34.73
67803;BME280;54601;51.378;-1.342;2022-09-20T06:42:05;101248.59;;;19.09;34.66
67803;BME280;54601;51.378;-1.342;2022-09-20T06:44:30;101248.78;;;19.29;34.77
67803;BME280;54601;51.378;-1.342;2022-09-20T06:46:55;101252.30;;;19.18;34.54
67803;BME280;54601;51.378;-1.342;2022-09-20T06:49:21;101253.93;;;19.22;34.42
67803;BME280;54601;51.378;-1.342;2022-09-20T06:51:45;101252.17;;;19.06;34.73
67803;BME280;54601;51.378;-1.342;2022-09-20T06:54:14;101252.88;;;19.15;34.55
67803;BME280;54601;51.378;-1.342;2022-09-20T06:56:35;101255.11;;;18.96;34.87
67803;BME280;54601;51.378;-1.342;2022-09-20T06:59:00;101255.43;;;18.97;34.81
67803;BME280;54601;51.378;-1.342;2022-09-20T07:01:25;101255.67;;;19.31;34.33
67803;BME280;54601;51.378;-1.342;2022-09-20T07:03:50;101258.79;;;19.17;34.60
67803;BME280;54601;51.378;-1.342;2022-09-20T07:06:15;101260.26;;;19.24;34.49
67803;BME280;54601;51.378;-1.342;2022-09-20T07:08:40;101263.26;;;19.13;34.63
67803;BME280;54601;51.378;-1.342;2022-09-20T07:11:07;101266.60;;;19.26;34.55
67803;BME280;54601;51.378;-1.342;2022-09-20T07:13:31;101268.78;;;19.29;34.45
67803;BME280;54601;51.378;-1.342;2022-09-20T07:15:59;101266.92;;;19.53;34.13
67803;BME280;54601;51.378;-1.342;2022-09-20T07:18:21;101266.94;;;19.51;34.15
67803;BME280;54601;51.378;-1.342;2022-09-20T07:20:46;101271.51;;;19.42;34.34
67803;BME280;54601;51.378;-1.342;2022-09-20T07:23:11;101267.18;;;19.55;34.16
67803;BME280;54601;51.378;-1.342;2022-09-20T07:25:36;101264.32;;;19.55;34.16
67803;BME280;54601;51.378;-1.342;2022-09-20T07:28:01;101266.79;;;19.57;34.05
67803;BME280;54601;51.378;-1.342;2022-09-20T07:30:26;101270.76;;;19.63;34.00
67803;BME280;54601;51.378;-1.342;2022-09-20T07:32:51;101273.15;;;19.82;34.15
67803;BME280;54601;51.378;-1.342;2022-09-20T07:35:16;101279.11;;;19.32;34.61
67803;BME280;54601;51.378;-1.342;2022-09-20T07:37:41;101280.24;;;19.34;34.54
67803;BME280;54601;51.378;-1.342;2022-09-20T07:40:09;101280.66;;;19.19;34.78
67803;BME280;54601;51.378;-1.342;2022-09-20T07:42:32;101281.65;;;19.36;34.57
67803;BME280;54601;51.378;-1.342;2022-09-20T07:44:57;101283.25;;;19.14;34.98
67803;BME280;54601;51.378;-1.342;2022-09-20T07:47:22;101284.66;;;19.05;35.18
67803;BME280;54601;51.378;-1.342;2022-09-20T07:49:47;101289.57;;;19.34;34.64
67803;BME280;54601;51.378;-1.342;2022-09-20T07:52:12;101290.61;;;19.20;34.93
67803;BME280;54601;51.378;-1.342;2022-09-20T07:54:37;101291.61;;;19.29;35.17
67803;BME280;54601;51.378;-1.342;2022-09-20T07:57:02;101293.88;;;18.88;35.47
67803;BME280;54601;51.378;-1.342;2022-09-20T07:59:27;101292.87;;;18.63;34.52
67803;BME280;54601;51.378;-1.342;2022-09-20T08:01:52;101294.66;;;19.40;34.68
67803;BME280;54601;51.378;-1.342;2022-09-20T08:04:18;101295.46;;;19.55;34.49
67803;BME280;54601;51.378;-1.342;2022-09-20T08:06:44;101298.53;;;19.49;34.52
67803;BME280;54601;51.378;-1.342;2022-09-20T08:09:10;101298.55;;;19.71;34.30
67803;BME280;54601;51.378;-1.342;2022-09-20T08:11:33;101302.01;;;19.64;34.41
67803;BME280;54601;51.378;-1.342;2022-09-20T08:13:59;101304.79;;;19.54;34.69
67803;BME280;54601;51.378;-1.342;2022-09-20T08:16:23;101305.15;;;19.56;34.74
67803;BME280;54601;51.378;-1.342;2022-09-20T08:18:50;101306.49;;;19.58;34.91
67803;BME280;54601;51.378;-1.342;2022-09-20T08:21:13;101307.56;;;19.60;35.10
67803;BME280;54601;51.378;-1.342;2022-09-20T08:23:40;101310.47;;;19.43;35.08
67803;BME280;54601;51.378;-1.342;2022-09-20T08:26:05;101310.35;;;19.67;35.13
67803;BME280;54601;51.378;-1.342;2022-09-20T08:28:29;101313.45;;;19.72;35.05
67803;BME280;54601;51.378;-1.342;2022-09-20T08:31:00;101315.99;;;19.80;35.15
67803;BME280;54601;51.378;-1.342;2022-09-20T08:33:19;101315.46;;;19.87;35.13
67803;BME280;54601;51.378;-1.342;2022-09-20T08:35:47;101315.78;;;19.94;35.13
67803;BME280;54601;51.378;-1.342;2022-09-20T08:38:09;101318.37;;;20.01;35.02
67803;BME280;54601;51.378;-1.342;2022-09-20T08:40:34;101318.86;;;20.09;34.91
67803;BME280;54601;51.378;-1.342;2022-09-20T08:42:59;101319.55;;;19.90;34.83
67803;BME280;54601;51.378;-1.342;2022-09-20T08:45:24;101322.13;;;19.92;34.83
67803;BME280;54601;51.378;-1.342;2022-09-20T08:47:52;101322.74;;;19.91;34.94
67803;BME280;54601;51.378;-1.342;2022-09-20T08:50:14;101325.82;;;20.19;34.97
67803;BME280;54601;51.378;-1.342;2022-09-20T08:52:39;101325.89;;;19.96;35.05
67803;BME280;54601;51.378;-1.342;2022-09-20T08:55:12;101328.48;;;20.27;34.99
67803;BME280;54601;51.378;-1.342;2022-09-20T08:57:30;101328.72;;;20.33;34.90
67803;BME280;54601;51.378;-1.342;2022-09-20T08:59:54;101326.99;;;19.91;34.84
67803;BME280;54601;51.378;-1.342;2022-09-20T09:02:20;101328.92;;;20.22;34.89
67803;BME280;54601;51.378;-1.342;2022-09-20T09:04:46;101334.15;;;20.23;34.89
67803;BME280;54601;51.378;-1.342;2022-09-20T09:07:14;101332.47;;;20.05;34.80
67803;BME280;54601;51.378;-1.342;2022-09-20T09:09:38;101332.82;;;20.36;34.76
67803;BME280;54601;51.378;-1.342;2022-09-20T09:12:03;101336.55;;;20.60;34.75
67803;BME280;54601;51.378;-1.342;2022-09-20T09:14:31;101337.20;;;20.39;34.81
67803;BME280;54601;51.378;-1.342;2022-09-20T09:16:55;101333.50;;;20.15;34.79
67803;BME280;54601;51.378;-1.342;2022-09-20T09:19:26;101335.35;;;20.45;34.75
67803;BME280;54601;51.378;-1.342;2022-09-20T09:21:47;101336.75;;;20.20;34.82
67803;BME280;54601;51.378;-1.342;2022-09-20T09:24:16;101337.50;;;20.53;34.71
67803;BME280;54601;51.378;-1.342;2022-09-20T09:26:41;101338.40;;;20.56;34.77
67803;BME280;54601;51.378;-1.342;2022-09-20T09:29:15;101340.16;;;20.38;34.73
67803;BME280;54601;51.378;-1.342;2022-09-20T09:31:30;101344.61;;;20.41;34.55
67803;BME280;54601;51.378;-1.342;2022-09-20T09:33:56;101348.86;;;20.43;34.52
67803;BME280;54601;51.378;-1.342;2022-09-20T09:36:24;101349.11;;;20.43;34.57
67803;BME280;54601;51.378;-1.342;2022-09-20T09:38:49;101346.86;;;20.43;34.42
67803;BME280;54601;51.378;-1.342;2022-09-20T09:41:21;101348.11;;;20.44;34.47
67803;BME280;54601;51.378;-1.342;2022-09-20T09:43:40;101344.82;;;20.43;34.42
67803;BME280;54601;51.378;-1.342;2022-09-20T09:48:32;101341.58;;;20.46;34.32
67803;BME280;54601;51.378;-1.342;2022-09-20T09:51:08;101342.21;;;20.54;34.08
67803;BME280;54601;51.378;-1.342;2022-09-20T09:53:24;101341.63;;;20.63;34.17
67803;BME280;54601;51.378;-1.342;2022-09-20T09:55:59;101337.29;;;20.68;34.04
67803;BME280;54601;51.378;-1.342;2022-09-20T09:58:23;101337.27;;;20.49;33.97
67803;BME280;54601;51.378;-1.342;2022-09-20T10:00:43;101336.76;;;20.75;34.08
67803;BME280;54601;51.378;-1.342;2022-09-20T10:03:19;101335.89;;;20.75;34.05
67803;BME280;54601;51.378;-1.342;2022-09-20T10:05:42;101334.68;;;20.86;34.00
67803;BME280;54601;51.378;-1.342;2022-09-20T10:08:09;101331.12;;;20.69;33.82
67803;BME280;54601;51.378;-1.342;2022-09-20T10:10:31;101332.49;;;20.94;33.77
67803;BME280;54601;51.378;-1.342;2022-09-20T10:13:03;101333.93;;;20.96;33.87
67803;BME280;54601;51.378;-1.342;2022-09-20T10:15:27;101334.18;;;21.00;33.78
67803;BME280;54601;51.378;-1.342;2022-09-20T10:17:50;101332.08;;;21.05;33.79
67803;BME280;54601;51.378;-1.342;2022-09-20T10:20:23;101332.84;;;21.10;33.81
67803;BME280;54601;51.378;-1.342;2022-09-20T10:22:43;101331.61;;;20.69;33.47
67803;BME280;54601;51.378;-1.342;2022-09-20T10:25:10;101328.72;;;21.13;33.30
67803;BME280;54601;51.378;-1.342;2022-09-20T10:27:43;101326.54;;;20.91;33.32
67803;BME280;54601;51.378;-1.342;2022-09-20T10:30:02;101327.18;;;21.13;33.33
67803;BME280;54601;51.378;-1.342;2022-09-20T10:32:29;101327.91;;;21.18;33.38
67803;BME280;54601;51.378;-1.342;2022-09-20T10:34:56;101328.27;;;21.18;33.47
67803;BME280;54601;51.378;-1.342;2022-09-20T10:37:16;101327.85;;;21.19;33.40
67803;BME280;54601;51.378;-1.342;2022-09-20T10:39:38;101326.63;;;20.72;33.44
67803;BME280;54601;51.378;-1.342;2022-09-20T10:42:12;101329.34;;;21.22;33.39
67803;BME280;54601;51.378;-1.342;2022-09-20T10:47:01;101330.87;;;20.95;33.35
67803;BME280;54601;51.378;-1.342;2022-09-20T10:49:30;101327.66;;;21.17;33.13
67803;BME280;54601;51.378;-1.342;2022-09-20T10:51:56;101326.82;;;21.00;33.12
67803;BME280;54601;51.378;-1.342;2022-09-20T10:54:23;101326.49;;;20.97;33.03
67803;BME280;54601;51.378;-1.342;2022-09-20T10:56:43;101325.40;;;21.02;32.93
67803;BME280;54601;51.378;-1.342;2022-09-20T10:59:14;101324.90;;;21.24;33.23
67803;BME280;54601;51.378;-1.342;2022-09-20T11:01:37;101325.69;;;20.86;33.38
67803;BME280;54601;51.378;-1.342;2022-09-20T11:04:08;101326.95;;;21.31;33.40
67803;BME280;54601;51.378;-1.342;2022-09-20T11:06:31;101326.36;;;20.90;33.37
67803;BME280;54601;51.378;-1.342;2022-09-20T11:08:54;101325.82;;;21.34;33.35
67803;BME280;54601;51.378;-1.342;2022-09-20T11:11:19;101323.52;;;21.12;33.26
67803;BME280;54601;51.378;-1.342;2022-09-20T11:13:46;101319.14;;;21.31;33.08
67803;BME280;54601;51.378;-1.342;2022-09-20T11:16:13;101315.25;;;21.35;32.96
67803;BME280;54601;51.378;-1.342;2022-09-20T11:18:38;101317.18;;;21.39;33.05
67803;BME280;54601;51.378;-1.342;2022-09-20T11:21:04;101315.37;;;21.13;33.19
67803;BME280;54601;51.378;-1.342;2022-09-20T11:23:32;101313.14;;;21.35;33.21
67803;BME280;54601;51.378;-1.342;2022-09-20T11:25:54;101313.73;;;21.16;33.18
67803;BME280;54601;51.378;-1.342;2022-09-20T11:28:20;101308.05;;;20.92;33.28
67803;BME280;54601;51.378;-1.342;2022-09-20T11:30:50;101304.83;;;20.96;33.09
67803;BME280;54601;51.378;-1.342;2022-09-20T11:33:16;101307.51;;;21.15;33.30
67803;BME280;54601;51.378;-1.342;2022-09-20T11:35:37;101303.01;;;21.36;33.23
67803;BME280;54601;51.378;-1.342;2022-09-20T11:38:08;101302.49;;;21.37;33.32
67803;BME280;54601;51.378;-1.342;2022-09-20T11:40:31;101298.21;;;21.18;33.17
67803;BME280;54601;51.378;-1.342;2022-09-20T11:42:56;101300.31;;;21.16;33.13
67803;BME280;54601;51.378;-1.342;2022-09-20T11:45:20;101301.87;;;20.94;33.21
67803;BME280;54601;51.378;-1.342;2022-09-20T11:47:48;101299.96;;;21.12;33.29
67803;BME280;54601;51.378;-1.342;2022-09-20T11:52:49;101301.89;;;20.90;33.39
67803;BME280;54601;51.378;-1.342;2022-09-20T11:57:30;101301.12;;;21.12;33.31
67803;BME280;54601;51.378;-1.342;2022-09-20T11:59:57;101304.83;;;21.11;33.21
67803;BME280;54601;51.378;-1.342;2022-09-20T12:02:24;101301.95;;;21.08;33.26
67803;BME280;54601;51.378;-1.342;2022-09-20T12:04:47;101299.87;;;20.82;33.37
67803;BME280;54601;51.378;-1.342;2022-09-20T12:07:16;101303.26;;;21.10;33.36
67803;BME280;54601;51.378;-1.342;2022-09-20T12:09:41;101301.67;;;21.28;33.45
67803;BME280;54601;51.378;-1.342;2022-09-20T12:12:13;101305.66;;;21.30;33.44
67803;BME280;54601;51.378;-1.342;2022-09-20T12:14:31;101303.41;;;21.30;33.48
67803;BME280;54601;51.378;-1.342;2022-09-20T12:16:57;101301.62;;;21.27;33.53
67803;BME280;54601;51.378;-1.342;2022-09-20T12:24:19;101306.05;;;21.27;33.52
67803;BME280;54601;51.378;-1.342;2022-09-20T12:26:43;101304.64;;;21.03;33.59
67803;BME280;54601;51.378;-1.342;2022-09-20T12:31:37;101307.52;;;21.02;33.56
67803;BME280;54601;51.378;-1.342;2022-09-20T12:34:00;101306.06;;;21.02;33.57
67803;BME280;54601;51.378;-1.342;2022-09-20T12:36:26;101307.33;;;21.25;33.53
67803;BME280;54601;51.378;-1.342;2022-09-20T12:38:57;101304.30;;;20.96;33.63
67803;BME280;54601;51.378;-1.342;2022-09-20T12:41:18;101303.69;;;21.01;33.62
67803;BME280;54601;51.378;-1.342;2022-09-20T12:43:51;101301.56;;;21.04;33.57
67803;BME280;54601;51.378;-1.342;2022-09-20T12:46:20;101301.61;;;21.03;33.62
67803;BME280;54601;51.378;-1.342;2022-09-20T12:48:37;101303.02;;;20.84;33.64
67803;BME280;54601;51.378;-1.342;2022-09-20T12:51:03;101298.67;;;21.29;33.63
67803;BME280;54601;51.378;-1.342;2022-09-20T12:53:26;101293.07;;;21.29;33.65
67803;BME280;54601;51.378;-1.342;2022-09-20T12:55:53;101293.11;;;21.26;33.66
67803;BME280;54601;51.378;-1.342;2022-09-20T12:58:28;101292.75;;;20.83;33.68
67803;BME280;54601;51.378;-1.342;2022-09-20T13:00:47;101290.73;;;21.27;33.64
67803;BME280;54601;51.378;-1.342;2022-09-20T13:05:38;101289.10;;;21.04;33.41
67803;BME280;54601;51.378;-1.342;2022-09-20T13:08:12;101290.17;;;20.81;33.33
67803;BME280;54601;51.378;-1.342;2022-09-20T13:10:33;101288.32;;;21.08;33.29
67803;BME280;54601;51.378;-1.342;2022-09-20T13:12:59;101291.59;;;20.79;33.57
67803;BME280;54601;51.378;-1.342;2022-09-20T13:15:21;101291.22;;;21.23;33.52
67803;BME280;54601;51.378;-1.342;2022-09-20T13:17:48;101290.64;;;20.81;33.56
67803;BME280;54601;51.378;-1.342;2022-09-20T13:20:18;101293.12;;;21.21;33.57
67803;BME280;54601;51.378;-1.342;2022-09-20T13:22:38;101292.65;;;20.77;33.52